sensor_id;sensor_type;location;lat;lon;timestamp;P1;durP1;ratioP1;P2;durP2;ratioP2
56051;SDS011;41919;42.648;23.384;2022-09-30T00:01:11;8.40;;;6.30;;
56051;SDS011;41919;42.648;23.384;2022-09-30T00:03:36;9.65;;;6.47;;
56051;SDS011;41919;42.648;23.384;2022-09-30T00:06:03;9.48;;;6.63;;
56051;SDS011;41919;42.648;23.384;2022-09-30T00:08:30;12.10;;;6.28;;
56051;SDS011;41919;42.648;23.384;2022-09-30T00:10:59;11.73;;;7.03;;
56051;SDS011;41919;42.648;23.384;2022-09-30T00:13:26;13.45;;;6.90;;
56051;SDS011;41919;42.648;23.384;2022-09-30T00:15:51;11.13;;;7.00;;
56051;SDS011;41919;42.648;23.384;2022-09-30T00:18:17;11.55;;;6.53;;
56051;SDS011;41919;42.648;23.384;2022-09-30T00:20:42;11.32;;;7.10;;
56051;SDS011;41919;42.648;23.384;2022-09-30T00:23:07;11.55;;;6.85;;
56051;SDS011;41919;42.648;23.384;2022-09-30T00:25:33;11.90;;;6.88;;
56051;SDS011;41919;42.648;23.384;2022-09-30T00:27:58;8.63;;;6.53;;
56051;SDS011;41919;42.648;23.384;2022-09-30T00:30:24;9.13;;;5.88;;
56051;SDS011;41919;42.648;23.384;2022-09-30T00:32:49;8.40;;;5.88;;
56051;SDS011;41919;42.648;23.384;2022-09-30T00:35:15;13.40;;;6.75;;
56051;SDS011;41919;42.648;23.384;2022-09-30T00:37:40;11.25;;;7.00;;
56051;SDS011;41919;42.648;23.384;2022-09-30T00:40:06;13.43;;;7.18;;
56051;SDS011;41919;42.648;23.384;2022-09-30T00:42:32;9.88;;;6.80;;
56051;SDS011;41919;42.648;23.384;2022-09-30T00:52:57;12.68;;;7.20;;
56051;SDS011;41919;42.648;23.384;2022-09-30T00:56:06;12.77;;;6.45;;
56051;SDS011;41919;42.648;23.384;2022-09-30T00:58:29;10.13;;;6.75;;
56051;SDS011;41919;42.648;23.384;2022-09-30T01:01:00;10.77;;;6.53;;
56051;SDS011;41919;42.648;23.384;2022-09-30T01:03:30;9.15;;;6.40;;
56051;SDS011;41919;42.648;23.384;2022-09-30T01:05:59;11.37;;;6.90;;
56051;SDS011;41919;42.648;23.384;2022-09-30T01:08:26;10.68;;;6.72;;
56051;SDS011;41919;42.648;23.384;2022-09-30T01:10:53;10.38;;;6.75;;
56051;SDS011;41919;42.648;23.384;2022-09-30T01:13:18;13.05;;;7.35;;
56051;SDS011;41919;42.648;23.384;2022-09-30T01:18:42;9.70;;;6.15;;
56051;SDS011;41919;42.648;23.384;2022-09-30T01:32:15;5.63;;;4.60;;
56051;SDS011;41919;42.648;23.384;2022-09-30T01:37:23;8.63;;;5.03;;
56051;SDS011;41919;42.648;23.384;2022-09-30T01:40:06;48.15;;;10.43;;
56051;SDS011;41919;42.648;23.384;2022-09-30T01:48:00;20.83;;;9.38;;
56051;SDS011;41919;42.648;23.384;2022-09-30T01:50:40;18.33;;;9.35;;
56051;SDS011;41919;42.648;23.384;2022-09-30T01:55:47;26.55;;;10.90;;
56051;SDS011;41919;42.648;23.384;2022-09-30T01:58:23;19.08;;;9.82;;
56051;SDS011;41919;42.648;23.384;2022-09-30T02:01:06;18.40;;;9.60;;
56051;SDS011;41919;42.648;23.384;2022-09-30T02:03:47;13.65;;;8.60;;
56051;SDS011;41919;42.648;23.384;2022-09-30T02:06:21;15.95;;;9.10;;
56051;SDS011;41919;42.648;23.384;2022-09-30T02:08:55;13.57;;;7.47;;
56051;SDS011;41919;42.648;23.384;2022-09-30T02:11:28;14.60;;;8.13;;
56051;SDS011;41919;42.648;23.384;2022-09-30T02:13:59;14.32;;;7.78;;
56051;SDS011;41919;42.648;23.384;2022-09-30T02:16:34;13.10;;;7.57;;
56051;SDS011;41919;42.648;23.384;2022-09-30T02:21:57;13.95;;;7.80;;
56051;SDS011;41919;42.648;23.384;2022-09-30T02:26:56;12.75;;;6.68;;
56051;SDS011;41919;42.648;23.384;2022-09-30T02:29:29;12.50;;;6.80;;
56051;SDS011;41919;42.648;23.384;2022-09-30T02:32:00;13.60;;;7.10;;
56051;SDS011;41919;42.648;23.384;2022-09-30T02:34:34;17.58;;;7.43;;
56051;SDS011;41919;42.648;23.384;2022-09-30T02:37:15;11.45;;;7.07;;
56051;SDS011;41919;42.648;23.384;2022-09-30T02:39:47;11.82;;;7.35;;
56051;SDS011;41919;42.648;23.384;2022-09-30T02:42:22;13.35;;;8.27;;
56051;SDS011;41919;42.648;23.384;2022-09-30T02:44:52;99.03;;;10.43;;
56051;SDS011;41919;42.648;23.384;2022-09-30T02:47:27;13.13;;;7.93;;
56051;SDS011;41919;42.648;23.384;2022-09-30T02:50:21;12.20;;;6.88;;
56051;SDS011;41919;42.648;23.384;2022-09-30T02:55:29;9.90;;;6.75;;
56051;SDS011;41919;42.648;23.384;2022-09-30T02:58:01;8.23;;;6.38;;
56051;SDS011;41919;42.648;23.384;2022-09-30T03:00:32;9.05;;;6.45;;
56051;SDS011;41919;42.648;23.384;2022-09-30T03:02:59;11.70;;;7.43;;
56051;SDS011;41919;42.648;23.384;2022-09-30T03:05:30;60.08;;;7.70;;
56051;SDS011;41919;42.648;23.384;2022-09-30T03:07:55;11.70;;;6.47;;
56051;SDS011;41919;42.648;23.384;2022-09-30T03:10:21;33.08;;;8.18;;
56051;SDS011;41919;42.648;23.384;2022-09-30T03:15:50;12.55;;;6.95;;
56051;SDS011;41919;42.648;23.384;2022-09-30T03:24:26;12.98;;;7.28;;
56051;SDS011;41919;42.648;23.384;2022-09-30T03:35:24;17.88;;;10.35;;
56051;SDS011;41919;42.648;23.384;2022-09-30T03:42:53;37.53;;;12.18;;
56051;SDS011;41919;42.648;23.384;2022-09-30T03:47:56;60.30;;;11.15;;
56051;SDS011;41919;42.648;23.384;2022-09-30T03:50:25;46.88;;;9.80;;
56051;SDS011;41919;42.648;23.384;2022-09-30T03:52:52;80.88;;;12.80;;
56051;SDS011;41919;42.648;23.384;2022-09-30T03:55:18;81.28;;;11.13;;
56051;SDS011;41919;42.648;23.384;2022-09-30T03:57:44;46.33;;;11.23;;
56051;SDS011;41919;42.648;23.384;2022-09-30T04:00:09;103.28;;;13.95;;
56051;SDS011;41919;42.648;23.384;2022-09-30T04:02:36;101.95;;;13.93;;
56051;SDS011;41919;42.648;23.384;2022-09-30T04:05:01;80.55;;;11.38;;
56051;SDS011;41919;42.648;23.384;2022-09-30T04:07:27;95.35;;;11.77;;
56051;SDS011;41919;42.648;23.384;2022-09-30T04:09:53;18.75;;;9.40;;
56051;SDS011;41919;42.648;23.384;2022-09-30T04:12:18;72.05;;;12.48;;
56051;SDS011;41919;42.648;23.384;2022-09-30T04:14:44;27.48;;;10.32;;
56051;SDS011;41919;42.648;23.384;2022-09-30T04:17:09;56.00;;;10.55;;
56051;SDS011;41919;42.648;23.384;2022-09-30T04:19:34;24.95;;;8.30;;
56051;SDS011;41919;42.648;23.384;2022-09-30T04:22:04;30.80;;;7.95;;
56051;SDS011;41919;42.648;23.384;2022-09-30T04:24:30;24.75;;;10.07;;
56051;SDS011;41919;42.648;23.384;2022-09-30T04:26:56;48.50;;;10.23;;
56051;SDS011;41919;42.648;23.384;2022-09-30T04:29:21;20.35;;;8.52;;
56051;SDS011;41919;42.648;23.384;2022-09-30T04:31:46;52.78;;;10.32;;
56051;SDS011;41919;42.648;23.384;2022-09-30T04:34:12;31.67;;;8.95;;
56051;SDS011;41919;42.648;23.384;2022-09-30T04:36:38;35.13;;;9.05;;
56051;SDS011;41919;42.648;23.384;2022-09-30T04:39:04;22.23;;;9.35;;
56051;SDS011;41919;42.648;23.384;2022-09-30T04:41:30;42.20;;;11.98;;
56051;SDS011;41919;42.648;23.384;2022-09-30T04:43:56;35.03;;;10.15;;
56051;SDS011;41919;42.648;23.384;2022-09-30T04:46:22;56.20;;;10.98;;
56051;SDS011;41919;42.648;23.384;2022-09-30T04:48:48;41.63;;;10.80;;
56051;SDS011;41919;42.648;23.384;2022-09-30T04:51:14;41.85;;;11.77;;
56051;SDS011;41919;42.648;23.384;2022-09-30T04:53:42;22.73;;;9.77;;
56051;SDS011;41919;42.648;23.384;2022-09-30T04:56:08;20.90;;;10.10;;
56051;SDS011;41919;42.648;23.384;2022-09-30T04:58:35;31.70;;;10.73;;
56051;SDS011;41919;42.648;23.384;2022-09-30T05:03:28;96.22;;;13.02;;
56051;SDS011;41919;42.648;23.384;2022-09-30T05:05:53;32.30;;;11.23;;
56051;SDS011;41919;42.648;23.384;2022-09-30T05:08:19;49.80;;;12.48;;
56051;SDS011;41919;42.648;23.384;2022-09-30T05:10:52;39.22;;;12.82;;
56051;SDS011;41919;42.648;23.384;2022-09-30T05:13:22;38.88;;;16.40;;
56051;SDS011;41919;42.648;23.384;2022-09-30T05:15:49;27.67;;;11.63;;
56051;SDS011;41919;42.648;23.384;2022-09-30T05:18:15;72.88;;;11.85;;
56051;SDS011;41919;42.648;23.384;2022-09-30T05:20:40;31.85;;;13.02;;
56051;SDS011;41919;42.648;23.384;2022-09-30T05:23:06;26.05;;;12.20;;
56051;SDS011;41919;42.648;23.384;2022-09-30T05:25:33;43.72;;;13.70;;
56051;SDS011;41919;42.648;23.384;2022-09-30T05:27:59;27.58;;;12.60;;
56051;SDS011;41919;42.648;23.384;2022-09-30T05:30:25;25.85;;;12.20;;
56051;SDS011;41919;42.648;23.384;2022-09-30T05:32:50;39.17;;;12.73;;
56051;SDS011;41919;42.648;23.384;2022-09-30T05:35:15;30.42;;;13.00;;
56051;SDS011;41919;42.648;23.384;2022-09-30T05:37:41;27.13;;;12.75;;
56051;SDS011;41919;42.648;23.384;2022-09-30T05:40:07;28.05;;;13.85;;
56051;SDS011;41919;42.648;23.384;2022-09-30T05:42:33;32.88;;;12.25;;
56051;SDS011;41919;42.648;23.384;2022-09-30T05:45:01;100.47;;;14.52;;
56051;SDS011;41919;42.648;23.384;2022-09-30T05:47:28;54.08;;;12.65;;
56051;SDS011;41919;42.648;23.384;2022-09-30T05:49:53;49.58;;;13.70;;
56051;SDS011;41919;42.648;23.384;2022-09-30T05:52:19;57.90;;;13.85;;
56051;SDS011;41919;42.648;23.384;2022-09-30T05:54:44;36.75;;;13.07;;
56051;SDS011;41919;42.648;23.384;2022-09-30T05:57:10;91.75;;;15.38;;
56051;SDS011;41919;42.648;23.384;2022-09-30T05:59:35;29.77;;;14.10;;
56051;SDS011;41919;42.648;23.384;2022-09-30T06:02:02;44.17;;;14.15;;
56051;SDS011;41919;42.648;23.384;2022-09-30T06:04:28;33.00;;;15.10;;
56051;SDS011;41919;42.648;23.384;2022-09-30T06:06:53;28.33;;;13.63;;
56051;SDS011;41919;42.648;23.384;2022-09-30T06:09:19;35.10;;;13.80;;
56051;SDS011;41919;42.648;23.384;2022-09-30T06:11:44;40.78;;;14.10;;
56051;SDS011;41919;42.648;23.384;2022-09-30T06:14:10;45.85;;;15.10;;
56051;SDS011;41919;42.648;23.384;2022-09-30T06:16:35;35.17;;;14.27;;
56051;SDS011;41919;42.648;23.384;2022-09-30T06:19:01;33.78;;;14.35;;
56051;SDS011;41919;42.648;23.384;2022-09-30T06:21:26;26.95;;;13.20;;
56051;SDS011;41919;42.648;23.384;2022-09-30T06:23:53;23.80;;;12.55;;
56051;SDS011;41919;42.648;23.384;2022-09-30T06:26:18;19.92;;;11.73;;
56051;SDS011;41919;42.648;23.384;2022-09-30T06:28:44;22.02;;;12.52;;
56051;SDS011;41919;42.648;23.384;2022-09-30T06:31:11;20.27;;;10.88;;
56051;SDS011;41919;42.648;23.384;2022-09-30T06:33:36;19.17;;;11.05;;
56051;SDS011;41919;42.648;23.384;2022-09-30T06:36:02;15.27;;;9.80;;
56051;SDS011;41919;42.648;23.384;2022-09-30T06:38:32;12.55;;;8.13;;
56051;SDS011;41919;42.648;23.384;2022-09-30T06:41:01;11.88;;;7.72;;
56051;SDS011;41919;42.648;23.384;2022-09-30T06:43:27;12.23;;;7.60;;
56051;SDS011;41919;42.648;23.384;2022-09-30T06:45:52;15.80;;;10.02;;
56051;SDS011;41919;42.648;23.384;2022-09-30T06:48:18;19.38;;;10.60;;
56051;SDS011;41919;42.648;23.384;2022-09-30T06:50:43;13.88;;;10.50;;
56051;SDS011;41919;42.648;23.384;2022-09-30T06:53:10;16.73;;;11.85;;
56051;SDS011;41919;42.648;23.384;2022-09-30T06:55:37;21.15;;;12.32;;
56051;SDS011;41919;42.648;23.384;2022-09-30T06:58:03;23.15;;;11.43;;
56051;SDS011;41919;42.648;23.384;2022-09-30T07:00:31;18.42;;;11.27;;
56051;SDS011;41919;42.648;23.384;2022-09-30T07:02:57;15.57;;;10.57;;
56051;SDS011;41919;42.648;23.384;2022-09-30T07:05:22;15.07;;;10.70;;
56051;SDS011;41919;42.648;23.384;2022-09-30T07:07:49;13.32;;;9.88;;
56051;SDS011;41919;42.648;23.384;2022-09-30T07:10:16;15.93;;;10.63;;
56051;SDS011;41919;42.648;23.384;2022-09-30T07:12:41;13.35;;;9.90;;
56051;SDS011;41919;42.648;23.384;2022-09-30T07:15:07;15.52;;;9.35;;
56051;SDS011;41919;42.648;23.384;2022-09-30T07:17:32;14.38;;;10.85;;
56051;SDS011;41919;42.648;23.384;2022-09-30T07:19:58;15.35;;;12.48;;
56051;SDS011;41919;42.648;23.384;2022-09-30T07:22:23;18.40;;;12.88;;
56051;SDS011;41919;42.648;23.384;2022-09-30T07:24:57;17.33;;;13.32;;
56051;SDS011;41919;42.648;23.384;2022-09-30T07:27:24;18.65;;;13.73;;
56051;SDS011;41919;42.648;23.384;2022-09-30T07:29:52;17.58;;;13.98;;
56051;SDS011;41919;42.648;23.384;2022-09-30T07:32:17;19.27;;;14.20;;
56051;SDS011;41919;42.648;23.384;2022-09-30T07:34:43;20.10;;;14.25;;
56051;SDS011;41919;42.648;23.384;2022-09-30T07:37:11;19.80;;;14.55;;
56051;SDS011;41919;42.648;23.384;2022-09-30T07:39:38;17.92;;;13.40;;
56051;SDS011;41919;42.648;23.384;2022-09-30T07:42:08;14.65;;;11.07;;
56051;SDS011;41919;42.648;23.384;2022-09-30T07:44:34;14.95;;;10.80;;
56051;SDS011;41919;42.648;23.384;2022-09-30T07:47:02;13.10;;;10.80;;
56051;SDS011;41919;42.648;23.384;2022-09-30T07:49:27;15.10;;;10.65;;
56051;SDS011;41919;42.648;23.384;2022-09-30T07:51:56;16.20;;;10.30;;
56051;SDS011;41919;42.648;23.384;2022-09-30T07:54:25;13.77;;;9.50;;
56051;SDS011;41919;42.648;23.384;2022-09-30T07:56:52;11.98;;;8.95;;
56051;SDS011;41919;42.648;23.384;2022-09-30T07:59:18;11.10;;;9.13;;
56051;SDS011;41919;42.648;23.384;2022-09-30T08:01:44;14.68;;;10.27;;
56051;SDS011;41919;42.648;23.384;2022-09-30T08:04:10;14.13;;;9.55;;
56051;SDS011;41919;42.648;23.384;2022-09-30T08:06:41;13.20;;;8.82;;
56051;SDS011;41919;42.648;23.384;2022-09-30T08:09:09;15.40;;;7.55;;
56051;SDS011;41919;42.648;23.384;2022-09-30T08:11:36;7.75;;;5.95;;
56051;SDS011;41919;42.648;23.384;2022-09-30T08:14:02;5.38;;;4.43;;
56051;SDS011;41919;42.648;23.384;2022-09-30T08:16:29;10.38;;;5.70;;
56051;SDS011;41919;42.648;23.384;2022-09-30T08:18:55;9.63;;;5.68;;
56051;SDS011;41919;42.648;23.384;2022-09-30T08:21:22;7.07;;;5.05;;
56051;SDS011;41919;42.648;23.384;2022-09-30T08:23:47;10.32;;;5.70;;
56051;SDS011;41919;42.648;23.384;2022-09-30T08:26:13;9.43;;;5.35;;
56051;SDS011;41919;42.648;23.384;2022-09-30T08:28:40;8.75;;;6.07;;
56051;SDS011;41919;42.648;23.384;2022-09-30T08:31:08;7.78;;;5.72;;
56051;SDS011;41919;42.648;23.384;2022-09-30T08:33:35;7.53;;;5.50;;
56051;SDS011;41919;42.648;23.384;2022-09-30T08:36:02;9.52;;;6.40;;
56051;SDS011;41919;42.648;23.384;2022-09-30T08:38:29;8.75;;;6.07;;
56051;SDS011;41919;42.648;23.384;2022-09-30T08:49:28;6.57;;;5.28;;
56051;SDS011;41919;42.648;23.384;2022-09-30T08:52:17;9.48;;;5.03;;
56051;SDS011;41919;42.648;23.384;2022-09-30T08:54:47;11.50;;;5.25;;
56051;SDS011;41919;42.648;23.384;2022-09-30T08:57:17;10.95;;;6.13;;
56051;SDS011;41919;42.648;23.384;2022-09-30T08:59:46;7.53;;;5.32;;
56051;SDS011;41919;42.648;23.384;2022-09-30T09:02:23;7.53;;;5.32;;
56051;SDS011;41919;42.648;23.384;2022-09-30T09:04:57;11.50;;;4.72;;
56051;SDS011;41919;42.648;23.384;2022-09-30T09:07:33;5.50;;;4.90;;
56051;SDS011;41919;42.648;23.384;2022-09-30T09:10:41;9.55;;;5.40;;
56051;SDS011;41919;42.648;23.384;2022-09-30T09:23:47;11.63;;;5.88;;
56051;SDS011;41919;42.648;23.384;2022-09-30T09:26:15;10.27;;;5.63;;
56051;SDS011;41919;42.648;23.384;2022-09-30T09:31:28;6.35;;;5.32;;
56051;SDS011;41919;42.648;23.384;2022-09-30T09:33:55;7.93;;;4.88;;
56051;SDS011;41919;42.648;23.384;2022-09-30T09:36:34;4.82;;;4.32;;
56051;SDS011;41919;42.648;23.384;2022-09-30T09:44:59;8.00;;;4.32;;
56051;SDS011;41919;42.648;23.384;2022-09-30T09:47:28;8.55;;;4.80;;
56051;SDS011;41919;42.648;23.384;2022-09-30T09:49:55;7.70;;;4.40;;
56051;SDS011;41919;42.648;23.384;2022-09-30T09:52:28;6.55;;;4.07;;
56051;SDS011;41919;42.648;23.384;2022-09-30T09:55:06;7.00;;;4.07;;
56051;SDS011;41919;42.648;23.384;2022-09-30T09:57:33;4.97;;;4.07;;
56051;SDS011;41919;42.648;23.384;2022-09-30T10:03:00;5.68;;;4.30;;
56051;SDS011;41919;42.648;23.384;2022-09-30T10:05:26;7.97;;;4.35;;
56051;SDS011;41919;42.648;23.384;2022-09-30T10:10:46;10.55;;;4.32;;
56051;SDS011;41919;42.648;23.384;2022-09-30T10:13:20;6.95;;;4.07;;
56051;SDS011;41919;42.648;23.384;2022-09-30T10:15:48;5.15;;;3.70;;
56051;SDS011;41919;42.648;23.384;2022-09-30T10:18:22;7.07;;;4.00;;
56051;SDS011;41919;42.648;23.384;2022-09-30T10:21:18;10.57;;;4.50;;
56051;SDS011;41919;42.648;23.384;2022-09-30T10:23:45;6.57;;;3.97;;
56051;SDS011;41919;42.648;23.384;2022-09-30T10:33:59;5.75;;;3.42;;
56051;SDS011;41919;42.648;23.384;2022-09-30T10:36:42;8.00;;;3.60;;
56051;SDS011;41919;42.648;23.384;2022-09-30T10:41:43;6.13;;;3.42;;
56051;SDS011;41919;42.648;23.384;2022-09-30T10:44:15;6.60;;;3.92;;
56051;SDS011;41919;42.648;23.384;2022-09-30T10:46:44;6.40;;;4.03;;
56051;SDS011;41919;42.648;23.384;2022-09-30T10:49:26;5.82;;;3.55;;
56051;SDS011;41919;42.648;23.384;2022-09-30T10:51:56;6.50;;;3.08;;
56051;SDS011;41919;42.648;23.384;2022-09-30T10:57:05;3.88;;;2.83;;
56051;SDS011;41919;42.648;23.384;2022-09-30T11:02:11;6.15;;;3.00;;
56051;SDS011;41919;42.648;23.384;2022-09-30T11:05:04;5.93;;;2.85;;
56051;SDS011;41919;42.648;23.384;2022-09-30T11:18:31;3.72;;;2.83;;
56051;SDS011;41919;42.648;23.384;2022-09-30T11:21:20;5.72;;;2.90;;
56051;SDS011;41919;42.648;23.384;2022-09-30T11:23:53;6.95;;;3.15;;
56051;SDS011;41919;42.648;23.384;2022-09-30T11:29:42;7.15;;;2.28;;
56051;SDS011;41919;42.648;23.384;2022-09-30T11:35:08;2.47;;;2.28;;
56051;SDS011;41919;42.648;23.384;2022-09-30T11:40:42;4.45;;;2.00;;
56051;SDS011;41919;42.648;23.384;2022-09-30T11:46:38;3.78;;;2.35;;
56051;SDS011;41919;42.648;23.384;2022-09-30T12:00:20;5.72;;;3.72;;
56051;SDS011;41919;42.648;23.384;2022-09-30T12:02:33;4.95;;;2.40;;
56051;SDS011;41919;42.648;23.384;2022-09-30T12:05:04;3.17;;;2.08;;
56051;SDS011;41919;42.648;23.384;2022-09-30T12:07:53;2.80;;;2.40;;
56051;SDS011;41919;42.648;23.384;2022-09-30T12:10:26;4.97;;;2.95;;
56051;SDS011;41919;42.648;23.384;2022-09-30T12:12:57;4.20;;;2.20;;
56051;SDS011;41919;42.648;23.384;2022-09-30T12:15:27;4.22;;;2.65;;
56051;SDS011;41919;42.648;23.384;2022-09-30T12:17:56;3.80;;;2.20;;
56051;SDS011;41919;42.648;23.384;2022-09-30T12:20:27;4.78;;;2.28;;
56051;SDS011;41919;42.648;23.384;2022-09-30T12:22:56;3.03;;;2.08;;
56051;SDS011;41919;42.648;23.384;2022-09-30T12:25:35;3.33;;;2.13;;
56051;SDS011;41919;42.648;23.384;2022-09-30T12:28:20;3.15;;;2.17;;
56051;SDS011;41919;42.648;23.384;2022-09-30T12:37:12;3.10;;;2.05;;
56051;SDS011;41919;42.648;23.384;2022-09-30T12:39:57;2.75;;;1.70;;
56051;SDS011;41919;42.648;23.384;2022-09-30T12:42:40;4.13;;;1.98;;
56051;SDS011;41919;42.648;23.384;2022-09-30T12:48:13;4.40;;;1.70;;
56051;SDS011;41919;42.648;23.384;2022-09-30T12:50:46;4.47;;;1.65;;
56051;SDS011;41919;42.648;23.384;2022-09-30T12:55:45;1.85;;;1.75;;
56051;SDS011;41919;42.648;23.384;2022-09-30T12:58:25;3.35;;;2.20;;
56051;SDS011;41919;42.648;23.384;2022-09-30T13:01:05;4.53;;;1.58;;
56051;SDS011;41919;42.648;23.384;2022-09-30T13:03:44;2.58;;;1.95;;
56051;SDS011;41919;42.648;23.384;2022-09-30T13:06:14;2.70;;;1.70;;
56051;SDS011;41919;42.648;23.384;2022-09-30T13:08:42;1.83;;;1.50;;
56051;SDS011;41919;42.648;23.384;2022-09-30T13:11:35;1.88;;;1.70;;
56051;SDS011;41919;42.648;23.384;2022-09-30T13:14:21;4.55;;;1.85;;
56051;SDS011;41919;42.648;23.384;2022-09-30T13:19:33;1.75;;;1.45;;
56051;SDS011;41919;42.648;23.384;2022-09-30T13:27:27;2.28;;;1.83;;
56051;SDS011;41919;42.648;23.384;2022-09-30T13:32:39;1.45;;;1.30;;
56051;SDS011;41919;42.648;23.384;2022-09-30T13:40:39;6.78;;;1.63;;
56051;SDS011;41919;42.648;23.384;2022-09-30T13:43:15;5.25;;;1.50;;
56051;SDS011;41919;42.648;23.384;2022-09-30T13:45:45;5.05;;;3.35;;
56051;SDS011;41919;42.648;23.384;2022-09-30T13:48:15;2.95;;;1.33;;
56051;SDS011;41919;42.648;23.384;2022-09-30T13:50:49;3.08;;;1.50;;
56051;SDS011;41919;42.648;23.384;2022-09-30T13:55:58;1.67;;;1.23;;
56051;SDS011;41919;42.648;23.384;2022-09-30T14:09:29;3.67;;;1.30;;
56051;SDS011;41919;42.648;23.384;2022-09-30T14:14:49;2.10;;;1.60;;
56051;SDS011;41919;42.648;23.384;2022-09-30T14:23:12;2.60;;;1.20;;
56051;SDS011;41919;42.648;23.384;2022-09-30T14:25:41;2.30;;;1.10;;
56051;SDS011;41919;42.648;23.384;2022-09-30T14:28:39;2.83;;;1.55;;
56051;SDS011;41919;42.648;23.384;2022-09-30T14:31:10;2.35;;;1.50;;
56051;SDS011;41919;42.648;23.384;2022-09-30T14:33:38;1.77;;;1.25;;
56051;SDS011;41919;42.648;23.384;2022-09-30T14:36:10;17.13;;;10.15;;
56051;SDS011;41919;42.648;23.384;2022-09-30T14:39:14;2.40;;;2.00;;
56051;SDS011;41919;42.648;23.384;2022-09-30T14:41:48;1.67;;;1.35;;
56051;SDS011;41919;42.648;23.384;2022-09-30T14:44:19;4.18;;;1.50;;
56051;SDS011;41919;42.648;23.384;2022-09-30T14:46:46;2.15;;;1.40;;
56051;SDS011;41919;42.648;23.384;2022-09-30T14:49:15;1.20;;;1.10;;
56051;SDS011;41919;42.648;23.384;2022-09-30T14:51:46;3.53;;;1.20;;
56051;SDS011;41919;42.648;23.384;2022-09-30T14:54:20;2.15;;;1.40;;
56051;SDS011;41919;42.648;23.384;2022-09-30T14:56:53;1.95;;;1.50;;
56051;SDS011;41919;42.648;23.384;2022-09-30T14:59:21;2.33;;;1.67;;
56051;SDS011;41919;42.648;23.384;2022-09-30T15:01:52;3.60;;;1.40;;
56051;SDS011;41919;42.648;23.384;2022-09-30T15:04:24;3.05;;;1.73;;
56051;SDS011;41919;42.648;23.384;2022-09-30T15:07:03;2.47;;;1.77;;
56051;SDS011;41919;42.648;23.384;2022-09-30T15:09:37;2.63;;;1.55;;
56051;SDS011;41919;42.648;23.384;2022-09-30T15:12:10;5.18;;;1.50;;
56051;SDS011;41919;42.648;23.384;2022-09-30T15:14:52;1.85;;;1.60;;
56051;SDS011;41919;42.648;23.384;2022-09-30T15:17:23;1.63;;;1.50;;
56051;SDS011;41919;42.648;23.384;2022-09-30T15:19:54;5.00;;;2.00;;
56051;SDS011;41919;42.648;23.384;2022-09-30T15:22:22;2.83;;;1.42;;
56051;SDS011;41919;42.648;23.384;2022-09-30T15:24:50;4.55;;;1.95;;
56051;SDS011;41919;42.648;23.384;2022-09-30T15:29:54;7.13;;;2.40;;
56051;SDS011;41919;42.648;23.384;2022-09-30T15:32:20;1.90;;;1.60;;
56051;SDS011;41919;42.648;23.384;2022-09-30T15:34:48;3.83;;;2.20;;
56051;SDS011;41919;42.648;23.384;2022-09-30T15:37:23;3.47;;;1.50;;
56051;SDS011;41919;42.648;23.384;2022-09-30T15:39:57;5.60;;;1.92;;
56051;SDS011;41919;42.648;23.384;2022-09-30T15:42:44;2.53;;;1.70;;
56051;SDS011;41919;42.648;23.384;2022-09-30T15:48:38;4.95;;;1.60;;
56051;SDS011;41919;42.648;23.384;2022-09-30T15:50:54;4.43;;;1.55;;
56051;SDS011;41919;42.648;23.384;2022-09-30T15:53:29;3.03;;;2.00;;
56051;SDS011;41919;42.648;23.384;2022-09-30T15:55:59;3.10;;;1.80;;
56051;SDS011;41919;42.648;23.384;2022-09-30T15:58:40;1.98;;;1.67;;
56051;SDS011;41919;42.648;23.384;2022-09-30T16:06:36;13.40;;;7.68;;
56051;SDS011;41919;42.648;23.384;2022-09-30T16:11:43;3.90;;;2.17;;
56051;SDS011;41919;42.648;23.384;2022-09-30T16:14:21;2.28;;;1.80;;
56051;SDS011;41919;42.648;23.384;2022-09-30T16:16:51;3.40;;;2.25;;
56051;SDS011;41919;42.648;23.384;2022-09-30T16:19:19;5.40;;;2.20;;
56051;SDS011;41919;42.648;23.384;2022-09-30T16:21:48;5.85;;;2.28;;
56051;SDS011;41919;42.648;23.384;2022-09-30T16:26:54;3.67;;;1.70;;
56051;SDS011;41919;42.648;23.384;2022-09-30T16:29:20;3.15;;;1.80;;
56051;SDS011;41919;42.648;23.384;2022-09-30T16:31:47;4.40;;;1.95;;
56051;SDS011;41919;42.648;23.384;2022-09-30T16:36:47;4.50;;;1.80;;
56051;SDS011;41919;42.648;23.384;2022-09-30T16:39:14;8.48;;;2.10;;
56051;SDS011;41919;42.648;23.384;2022-09-30T16:41:40;8.15;;;2.38;;
56051;SDS011;41919;42.648;23.384;2022-09-30T16:44:07;6.13;;;1.83;;
56051;SDS011;41919;42.648;23.384;2022-09-30T16:46:33;11.38;;;4.72;;
56051;SDS011;41919;42.648;23.384;2022-09-30T16:48:58;6.38;;;2.85;;
56051;SDS011;41919;42.648;23.384;2022-09-30T16:51:24;5.07;;;2.63;;
56051;SDS011;41919;42.648;23.384;2022-09-30T16:53:51;9.15;;;2.90;;
56051;SDS011;41919;42.648;23.384;2022-09-30T16:56:17;7.50;;;3.30;;
56051;SDS011;41919;42.648;23.384;2022-09-30T16:58:44;10.45;;;4.47;;
56051;SDS011;41919;42.648;23.384;2022-09-30T17:01:15;7.07;;;3.10;;
56051;SDS011;41919;42.648;23.384;2022-09-30T17:03:43;9.45;;;4.97;;
56051;SDS011;41919;42.648;23.384;2022-09-30T17:06:09;4.13;;;2.17;;
56051;SDS011;41919;42.648;23.384;2022-09-30T17:08:34;5.45;;;2.58;;
56051;SDS011;41919;42.648;23.384;2022-09-30T17:11:00;2.20;;;1.85;;
56051;SDS011;41919;42.648;23.384;2022-09-30T17:13:25;2.83;;;1.95;;
56051;SDS011;41919;42.648;23.384;2022-09-30T17:15:51;7.50;;;2.40;;
56051;SDS011;41919;42.648;23.384;2022-09-30T17:18:17;5.85;;;2.55;;
56051;SDS011;41919;42.648;23.384;2022-09-30T17:20:44;7.03;;;2.70;;
56051;SDS011;41919;42.648;23.384;2022-09-30T17:23:12;4.10;;;2.90;;
56051;SDS011;41919;42.648;23.384;2022-09-30T17:25:38;5.22;;;1.95;;
56051;SDS011;41919;42.648;23.384;2022-09-30T17:28:11;3.65;;;2.20;;
56051;SDS011;41919;42.648;23.384;2022-09-30T17:30:37;7.10;;;2.70;;
56051;SDS011;41919;42.648;23.384;2022-09-30T17:33:05;5.03;;;2.40;;
56051;SDS011;41919;42.648;23.384;2022-09-30T17:35:32;3.70;;;2.30;;
56051;SDS011;41919;42.648;23.384;2022-09-30T17:37:58;2.22;;;2.00;;
56051;SDS011;41919;42.648;23.384;2022-09-30T17:40:24;4.13;;;2.03;;
56051;SDS011;41919;42.648;23.384;2022-09-30T17:43:08;2.58;;;1.77;;
56051;SDS011;41919;42.648;23.384;2022-09-30T17:45:38;3.80;;;1.90;;
56051;SDS011;41919;42.648;23.384;2022-09-30T17:48:05;2.22;;;1.83;;
56051;SDS011;41919;42.648;23.384;2022-09-30T17:50:33;2.78;;;1.98;;
56051;SDS011;41919;42.648;23.384;2022-09-30T17:53:00;3.30;;;1.58;;
56051;SDS011;41919;42.648;23.384;2022-09-30T17:55:26;6.00;;;1.90;;
56051;SDS011;41919;42.648;23.384;2022-09-30T17:57:53;4.32;;;2.15;;
56051;SDS011;41919;42.648;23.384;2022-09-30T18:00:19;3.80;;;2.38;;
56051;SDS011;41919;42.648;23.384;2022-09-30T18:02:45;3.63;;;2.50;;
56051;SDS011;41919;42.648;23.384;2022-09-30T18:05:11;8.32;;;2.83;;
56051;SDS011;41919;42.648;23.384;2022-09-30T18:07:38;4.57;;;2.95;;
56051;SDS011;41919;42.648;23.384;2022-09-30T18:10:04;5.97;;;3.55;;
56051;SDS011;41919;42.648;23.384;2022-09-30T18:12:29;6.30;;;2.53;;
56051;SDS011;41919;42.648;23.384;2022-09-30T18:14:55;6.70;;;2.97;;
56051;SDS011;41919;42.648;23.384;2022-09-30T18:17:23;5.35;;;2.42;;
56051;SDS011;41919;42.648;23.384;2022-09-30T18:19:49;4.25;;;2.65;;
56051;SDS011;41919;42.648;23.384;2022-09-30T18:22:14;5.80;;;2.10;;